sensor_id;sensor_type;location;lat;lon;timestamp;P1;durP1;ratioP1;P2;durP2;ratioP2
20623;SDS011;10471;42.736;23.346;2023-07-08T00:01:04;22.17;;;18.90;;
20623;SDS011;10471;42.736;23.346;2023-07-08T00:03:37;23.50;;;20.10;;
20623;SDS011;10471;42.736;23.346;2023-07-08T00:06:03;29.23;;;19.97;;
20623;SDS011;10471;42.736;23.346;2023-07-08T00:08:28;24.50;;;19.87;;
20623;SDS011;10471;42.736;23.346;2023-07-08T00:10:54;25.47;;;19.67;;
20623;SDS011;10471;42.736;23.346;2023-07-08T00:13:19;25.20;;;20.47;;
20623;SDS011;10471;42.736;23.346;2023-07-08T00:15:44;25.10;;;19.97;;
20623;SDS011;10471;42.736;23.346;2023-07-08T00:18:14;26.80;;;22.10;;
20623;SDS011;10471;42.736;23.346;2023-07-08T00:20:41;25.77;;;21.50;;
20623;SDS011;10471;42.736;23.346;2023-07-08T00:23:10;26.37;;;22.07;;
20623;SDS011;10471;42.736;23.346;2023-07-08T00:25:35;23.77;;;21.17;;
20623;SDS011;10471;42.736;23.346;2023-07-08T00:28:02;27.00;;;20.47;;
20623;SDS011;10471;42.736;23.346;2023-07-08T00:30:30;25.50;;;20.77;;
20623;SDS011;10471;42.736;23.346;2023-07-08T00:32:56;23.10;;;20.17;;
20623;SDS011;10471;42.736;23.346;2023-07-08T00:35:30;26.27;;;20.87;;
20623;SDS011;10471;42.736;23.346;2023-07-08T00:37:58;24.63;;;21.37;;
20623;SDS011;10471;42.736;23.346;2023-07-08T00:40:28;25.23;;;20.70;;
20623;SDS011;10471;42.736;23.346;2023-07-08T00:42:55;22.80;;;20.40;;
20623;SDS011;10471;42.736;23.346;2023-07-08T00:48:23;22.70;;;18.80;;
20623;SDS011;10471;42.736;23.346;2023-07-08T00:50:50;29.53;;;20.33;;
20623;SDS011;10471;42.736;23.346;2023-07-08T00:55:52;22.63;;;20.07;;
20623;SDS011;10471;42.736;23.346;2023-07-08T00:58:22;21.77;;;19.07;;
20623;SDS011;10471;42.736;23.346;2023-07-08T01:00:50;21.80;;;18.30;;
20623;SDS011;10471;42.736;23.346;2023-07-08T01:03:17;20.93;;;18.70;;
20623;SDS011;10471;42.736;23.346;2023-07-08T01:05:45;22.20;;;19.33;;
20623;SDS011;10471;42.736;23.346;2023-07-08T01:08:11;23.40;;;18.63;;
20623;SDS011;10471;42.736;23.346;2023-07-08T01:10:39;23.00;;;18.80;;
20623;SDS011;10471;42.736;23.346;2023-07-08T01:13:11;20.43;;;18.10;;
20623;SDS011;10471;42.736;23.346;2023-07-08T01:15:41;25.93;;;18.90;;
20623;SDS011;10471;42.736;23.346;2023-07-08T01:18:09;21.23;;;17.63;;
20623;SDS011;10471;42.736;23.346;2023-07-08T01:20:36;21.97;;;17.53;;
20623;SDS011;10471;42.736;23.346;2023-07-08T01:23:02;19.73;;;16.17;;
20623;SDS011;10471;42.736;23.346;2023-07-08T01:25:27;19.67;;;16.23;;
20623;SDS011;10471;42.736;23.346;2023-07-08T01:27:53;17.40;;;15.47;;
20623;SDS011;10471;42.736;23.346;2023-07-08T01:30:21;21.47;;;15.40;;
20623;SDS011;10471;42.736;23.346;2023-07-08T01:32:50;18.60;;;16.17;;
20623;SDS011;10471;42.736;23.346;2023-07-08T01:35:21;20.10;;;15.33;;
20623;SDS011;10471;42.736;23.346;2023-07-08T01:38:00;18.90;;;16.00;;
20623;SDS011;10471;42.736;23.346;2023-07-08T01:40:30;19.80;;;16.17;;
20623;SDS011;10471;42.736;23.346;2023-07-08T01:42:57;17.93;;;15.30;;
20623;SDS011;10471;42.736;23.346;2023-07-08T01:45:24;19.07;;;14.80;;
20623;SDS011;10471;42.736;23.346;2023-07-08T01:47:53;18.27;;;15.20;;
20623;SDS011;10471;42.736;23.346;2023-07-08T01:50:21;22.17;;;16.43;;
20623;SDS011;10471;42.736;23.346;2023-07-08T01:52:50;22.40;;;15.43;;
20623;SDS011;10471;42.736;23.346;2023-07-08T01:55:20;16.97;;;15.17;;
20623;SDS011;10471;42.736;23.346;2023-07-08T01:57:48;18.30;;;15.40;;
20623;SDS011;10471;42.736;23.346;2023-07-08T02:00:16;19.00;;;14.80;;
20623;SDS011;10471;42.736;23.346;2023-07-08T02:02:42;19.83;;;15.20;;
20623;SDS011;10471;42.736;23.346;2023-07-08T02:05:07;17.30;;;15.20;;
20623;SDS011;10471;42.736;23.346;2023-07-08T02:07:33;21.17;;;14.90;;
20623;SDS011;10471;42.736;23.346;2023-07-08T02:09:58;20.07;;;14.93;;
20623;SDS011;10471;42.736;23.346;2023-07-08T02:12:23;18.40;;;14.90;;
20623;SDS011;10471;42.736;23.346;2023-07-08T02:14:49;17.43;;;15.17;;
20623;SDS011;10471;42.736;23.346;2023-07-08T02:17:14;16.80;;;15.10;;
20623;SDS011;10471;42.736;23.346;2023-07-08T02:19:42;21.00;;;15.30;;
20623;SDS011;10471;42.736;23.346;2023-07-08T02:22:08;16.47;;;14.43;;
20623;SDS011;10471;42.736;23.346;2023-07-08T02:24:33;22.33;;;14.50;;
20623;SDS011;10471;42.736;23.346;2023-07-08T02:26:58;18.23;;;14.13;;
20623;SDS011;10471;42.736;23.346;2023-07-08T02:29:24;17.20;;;14.57;;
20623;SDS011;10471;42.736;23.346;2023-07-08T02:31:51;17.80;;;14.90;;
20623;SDS011;10471;42.736;23.346;2023-07-08T02:34:16;19.67;;;14.77;;
20623;SDS011;10471;42.736;23.346;2023-07-08T02:36:41;18.67;;;14.23;;
20623;SDS011;10471;42.736;23.346;2023-07-08T02:39:07;20.10;;;15.27;;
20623;SDS011;10471;42.736;23.346;2023-07-08T02:41:32;18.03;;;14.53;;
20623;SDS011;10471;42.736;23.346;2023-07-08T02:43:57;20.40;;;15.93;;
20623;SDS011;10471;42.736;23.346;2023-07-08T02:46:23;21.83;;;16.10;;
20623;SDS011;10471;42.736;23.346;2023-07-08T02:48:48;20.73;;;16.60;;
20623;SDS011;10471;42.736;23.346;2023-07-08T02:51:13;19.43;;;15.63;;
20623;SDS011;10471;42.736;23.346;2023-07-08T02:53:39;19.07;;;15.90;;
20623;SDS011;10471;42.736;23.346;2023-07-08T02:56:04;21.83;;;16.80;;
20623;SDS011;10471;42.736;23.346;2023-07-08T02:58:29;21.03;;;16.23;;
20623;SDS011;10471;42.736;23.346;2023-07-08T03:00:55;22.17;;;16.63;;
20623;SDS011;10471;42.736;23.346;2023-07-08T03:03:25;19.07;;;15.17;;
20623;SDS011;10471;42.736;23.346;2023-07-08T03:06:03;15.97;;;14.33;;
20623;SDS011;10471;42.736;23.346;2023-07-08T03:08:30;21.93;;;14.87;;
20623;SDS011;10471;42.736;23.346;2023-07-08T03:11:00;20.70;;;14.70;;
20623;SDS011;10471;42.736;23.346;2023-07-08T03:13:28;18.43;;;14.07;;
20623;SDS011;10471;42.736;23.346;2023-07-08T03:15:54;16.87;;;14.30;;
20623;SDS011;10471;42.736;23.346;2023-07-08T03:18:21;18.97;;;14.83;;
20623;SDS011;10471;42.736;23.346;2023-07-08T03:20:48;18.07;;;13.87;;
20623;SDS011;10471;42.736;23.346;2023-07-08T03:23:14;17.40;;;14.20;;
20623;SDS011;10471;42.736;23.346;2023-07-08T03:25:39;19.10;;;15.00;;
20623;SDS011;10471;42.736;23.346;2023-07-08T03:28:05;18.93;;;14.27;;
20623;SDS011;10471;42.736;23.346;2023-07-08T03:30:34;18.50;;;13.97;;
20623;SDS011;10471;42.736;23.346;2023-07-08T03:32:59;16.77;;;13.97;;
20623;SDS011;10471;42.736;23.346;2023-07-08T03:35:25;19.43;;;14.63;;
20623;SDS011;10471;42.736;23.346;2023-07-08T03:37:51;15.20;;;13.10;;
20623;SDS011;10471;42.736;23.346;2023-07-08T03:40:17;16.67;;;14.10;;
20623;SDS011;10471;42.736;23.346;2023-07-08T03:42:42;17.13;;;13.77;;
20623;SDS011;10471;42.736;23.346;2023-07-08T03:45:08;17.93;;;14.93;;
20623;SDS011;10471;42.736;23.346;2023-07-08T03:47:34;16.43;;;13.73;;
20623;SDS011;10471;42.736;23.346;2023-07-08T03:49:59;18.67;;;14.13;;
20623;SDS011;10471;42.736;23.346;2023-07-08T03:52:25;18.00;;;13.67;;
20623;SDS011;10471;42.736;23.346;2023-07-08T03:54:50;15.33;;;13.07;;
20623;SDS011;10471;42.736;23.346;2023-07-08T03:57:15;17.37;;;12.90;;
20623;SDS011;10471;42.736;23.346;2023-07-08T03:59:41;15.37;;;13.70;;
20623;SDS011;10471;42.736;23.346;2023-07-08T04:02:08;16.97;;;13.23;;
20623;SDS011;10471;42.736;23.346;2023-07-08T04:04:35;15.73;;;13.23;;
20623;SDS011;10471;42.736;23.346;2023-07-08T04:07:02;16.03;;;13.60;;
20623;SDS011;10471;42.736;23.346;2023-07-08T04:09:28;16.40;;;13.90;;
20623;SDS011;10471;42.736;23.346;2023-07-08T04:11:54;16.43;;;13.37;;
20623;SDS011;10471;42.736;23.346;2023-07-08T04:14:19;17.20;;;13.73;;
20623;SDS011;10471;42.736;23.346;2023-07-08T04:16:46;18.90;;;13.83;;
20623;SDS011;10471;42.736;23.346;2023-07-08T04:19:17;17.40;;;14.27;;
20623;SDS011;10471;42.736;23.346;2023-07-08T04:21:44;15.93;;;12.83;;
20623;SDS011;10471;42.736;23.346;2023-07-08T04:24:13;18.80;;;13.77;;
20623;SDS011;10471;42.736;23.346;2023-07-08T04:26:40;19.97;;;13.47;;
20623;SDS011;10471;42.736;23.346;2023-07-08T04:29:09;18.10;;;13.70;;
20623;SDS011;10471;42.736;23.346;2023-07-08T04:31:36;15.93;;;13.27;;
20623;SDS011;10471;42.736;23.346;2023-07-08T04:34:01;13.87;;;12.47;;
20623;SDS011;10471;42.736;23.346;2023-07-08T04:36:27;13.43;;;12.03;;
20623;SDS011;10471;42.736;23.346;2023-07-08T04:38:52;16.53;;;13.70;;
20623;SDS011;10471;42.736;23.346;2023-07-08T04:41:17;16.03;;;12.73;;
20623;SDS011;10471;42.736;23.346;2023-07-08T04:43:43;15.30;;;12.83;;
20623;SDS011;10471;42.736;23.346;2023-07-08T04:46:44;15.00;;;13.20;;
20623;SDS011;10471;42.736;23.346;2023-07-08T04:49:07;15.07;;;12.80;;
20623;SDS011;10471;42.736;23.346;2023-07-08T04:51:37;13.87;;;12.47;;
20623;SDS011;10471;42.736;23.346;2023-07-08T04:54:03;17.57;;;13.30;;
20623;SDS011;10471;42.736;23.346;2023-07-08T04:56:36;17.87;;;12.70;;
20623;SDS011;10471;42.736;23.346;2023-07-08T04:59:03;16.97;;;13.23;;
20623;SDS011;10471;42.736;23.346;2023-07-08T05:01:30;15.80;;;13.00;;
20623;SDS011;10471;42.736;23.346;2023-07-08T05:03:55;14.43;;;12.93;;
20623;SDS011;10471;42.736;23.346;2023-07-08T05:06:21;15.93;;;12.87;;
20623;SDS011;10471;42.736;23.346;2023-07-08T05:08:46;16.13;;;13.07;;
20623;SDS011;10471;42.736;23.346;2023-07-08T05:11:12;15.47;;;13.83;;
20623;SDS011;10471;42.736;23.346;2023-07-08T05:13:37;15.10;;;12.77;;
20623;SDS011;10471;42.736;23.346;2023-07-08T05:16:02;14.67;;;13.23;;
20623;SDS011;10471;42.736;23.346;2023-07-08T05:18:28;15.37;;;13.20;;
20623;SDS011;10471;42.736;23.346;2023-07-08T05:20:54;17.50;;;13.50;;
20623;SDS011;10471;42.736;23.346;2023-07-08T05:23:21;15.60;;;13.87;;
20623;SDS011;10471;42.736;23.346;2023-07-08T05:25:47;16.53;;;14.47;;
20623;SDS011;10471;42.736;23.346;2023-07-08T05:28:16;17.37;;;13.63;;
20623;SDS011;10471;42.736;23.346;2023-07-08T05:30:41;15.03;;;13.10;;
20623;SDS011;10471;42.736;23.346;2023-07-08T05:33:07;18.07;;;13.10;;
20623;SDS011;10471;42.736;23.346;2023-07-08T05:35:34;16.87;;;12.73;;
20623;SDS011;10471;42.736;23.346;2023-07-08T05:37:59;14.07;;;12.57;;
20623;SDS011;10471;42.736;23.346;2023-07-08T05:40:25;15.27;;;12.60;;
20623;SDS011;10471;42.736;23.346;2023-07-08T05:42:50;13.00;;;11.60;;
20623;SDS011;10471;42.736;23.346;2023-07-08T05:45:15;13.27;;;11.90;;
20623;SDS011;10471;42.736;23.346;2023-07-08T05:47:41;14.60;;;11.50;;
20623;SDS011;10471;42.736;23.346;2023-07-08T05:50:06;16.37;;;11.50;;
20623;SDS011;10471;42.736;23.346;2023-07-08T05:52:32;14.07;;;11.50;;
20623;SDS011;10471;42.736;23.346;2023-07-08T05:54:57;13.77;;;11.50;;
20623;SDS011;10471;42.736;23.346;2023-07-08T05:57:23;13.90;;;12.27;;
20623;SDS011;10471;42.736;23.346;2023-07-08T05:59:49;14.83;;;12.10;;
20623;SDS011;10471;42.736;23.346;2023-07-08T06:02:15;15.83;;;11.97;;
20623;SDS011;10471;42.736;23.346;2023-07-08T06:04:41;13.40;;;12.03;;
20623;SDS011;10471;42.736;23.346;2023-07-08T06:07:07;13.23;;;11.77;;
20623;SDS011;10471;42.736;23.346;2023-07-08T06:09:33;14.37;;;12.13;;
20623;SDS011;10471;42.736;23.346;2023-07-08T06:11:59;16.93;;;11.60;;
20623;SDS011;10471;42.736;23.346;2023-07-08T06:14:26;12.70;;;11.27;;
20623;SDS011;10471;42.736;23.346;2023-07-08T06:16:52;14.30;;;11.33;;
20623;SDS011;10471;42.736;23.346;2023-07-08T06:19:20;16.57;;;11.73;;
20623;SDS011;10471;42.736;23.346;2023-07-08T06:21:48;16.10;;;12.63;;
20623;SDS011;10471;42.736;23.346;2023-07-08T06:24:32;13.17;;;11.77;;
20623;SDS011;10471;42.736;23.346;2023-07-08T06:26:58;13.23;;;10.63;;
20623;SDS011;10471;42.736;23.346;2023-07-08T06:29:23;14.93;;;10.37;;
20623;SDS011;10471;42.736;23.346;2023-07-08T06:31:49;12.63;;;10.20;;
20623;SDS011;10471;42.736;23.346;2023-07-08T06:34:14;10.30;;;9.20;;
20623;SDS011;10471;42.736;23.346;2023-07-08T06:36:39;12.53;;;10.20;;
20623;SDS011;10471;42.736;23.346;2023-07-08T06:39:05;11.67;;;9.43;;
20623;SDS011;10471;42.736;23.346;2023-07-08T06:41:33;13.40;;;9.10;;
20623;SDS011;10471;42.736;23.346;2023-07-08T06:43:58;11.37;;;8.93;;
20623;SDS011;10471;42.736;23.346;2023-07-08T06:46:23;11.27;;;9.53;;
20623;SDS011;10471;42.736;23.346;2023-07-08T06:48:49;12.23;;;8.97;;
20623;SDS011;10471;42.736;23.346;2023-07-08T06:51:14;11.00;;;9.30;;
20623;SDS011;10471;42.736;23.346;2023-07-08T06:53:40;12.37;;;9.00;;
20623;SDS011;10471;42.736;23.346;2023-07-08T06:56:05;11.53;;;8.93;;
20623;SDS011;10471;42.736;23.346;2023-07-08T06:58:31;10.33;;;8.90;;
20623;SDS011;10471;42.736;23.346;2023-07-08T07:00:56;15.33;;;9.57;;
20623;SDS011;10471;42.736;23.346;2023-07-08T07:03:22;10.17;;;9.03;;
20623;SDS011;10471;42.736;23.346;2023-07-08T07:05:49;11.17;;;9.10;;
20623;SDS011;10471;42.736;23.346;2023-07-08T07:08:14;13.73;;;9.37;;
20623;SDS011;10471;42.736;23.346;2023-07-08T07:10:40;11.93;;;9.20;;
20623;SDS011;10471;42.736;23.346;2023-07-08T07:13:05;10.83;;;8.80;;
20623;SDS011;10471;42.736;23.346;2023-07-08T07:15:31;12.87;;;9.30;;
20623;SDS011;10471;42.736;23.346;2023-07-08T07:17:57;9.60;;;8.60;;
20623;SDS011;10471;42.736;23.346;2023-07-08T07:20:23;10.03;;;8.77;;
20623;SDS011;10471;42.736;23.346;2023-07-08T07:22:49;10.27;;;8.47;;
20623;SDS011;10471;42.736;23.346;2023-07-08T07:25:14;10.70;;;8.60;;
20623;SDS011;10471;42.736;23.346;2023-07-08T07:27:40;13.67;;;9.77;;
20623;SDS011;10471;42.736;23.346;2023-07-08T07:30:05;12.43;;;9.20;;
20623;SDS011;10471;42.736;23.346;2023-07-08T07:32:31;11.10;;;9.53;;
20623;SDS011;10471;42.736;23.346;2023-07-08T07:34:59;10.73;;;9.23;;
20623;SDS011;10471;42.736;23.346;2023-07-08T07:37:25;12.77;;;10.00;;
20623;SDS011;10471;42.736;23.346;2023-07-08T07:39:50;9.43;;;8.40;;
20623;SDS011;10471;42.736;23.346;2023-07-08T07:42:16;10.10;;;9.10;;
20623;SDS011;10471;42.736;23.346;2023-07-08T07:44:43;10.13;;;8.63;;
20623;SDS011;10471;42.736;23.346;2023-07-08T07:47:09;10.60;;;9.60;;
20623;SDS011;10471;42.736;23.346;2023-07-08T07:49:35;9.93;;;8.93;;
20623;SDS011;10471;42.736;23.346;2023-07-08T07:52:01;11.70;;;9.47;;
20623;SDS011;10471;42.736;23.346;2023-07-08T07:54:27;11.97;;;8.80;;
20623;SDS011;10471;42.736;23.346;2023-07-08T07:56:52;11.27;;;9.13;;
20623;SDS011;10471;42.736;23.346;2023-07-08T07:59:18;10.30;;;9.20;;
20623;SDS011;10471;42.736;23.346;2023-07-08T08:01:44;11.53;;;9.30;;
20623;SDS011;10471;42.736;23.346;2023-07-08T08:04:10;11.20;;;8.93;;
20623;SDS011;10471;42.736;23.346;2023-07-08T08:06:36;11.77;;;8.87;;
20623;SDS011;10471;42.736;23.346;2023-07-08T08:09:02;10.83;;;9.27;;
20623;SDS011;10471;42.736;23.346;2023-07-08T08:11:28;11.00;;;9.37;;
20623;SDS011;10471;42.736;23.346;2023-07-08T08:13:54;11.80;;;9.97;;
20623;SDS011;10471;42.736;23.346;2023-07-08T08:16:19;11.00;;;9.73;;
20623;SDS011;10471;42.736;23.346;2023-07-08T08:18:46;11.27;;;9.23;;
20623;SDS011;10471;42.736;23.346;2023-07-08T08:21:11;11.23;;;8.97;;
20623;SDS011;10471;42.736;23.346;2023-07-08T08:23:37;11.70;;;9.33;;
20623;SDS011;10471;42.736;23.346;2023-07-08T08:26:02;11.23;;;10.03;;
20623;SDS011;10471;42.736;23.346;2023-07-08T08:28:28;11.30;;;9.27;;
20623;SDS011;10471;42.736;23.346;2023-07-08T08:30:53;11.30;;;9.33;;
20623;SDS011;10471;42.736;23.346;2023-07-08T08:33:19;11.63;;;9.40;;
20623;SDS011;10471;42.736;23.346;2023-07-08T08:35:45;10.30;;;9.30;;
20623;SDS011;10471;42.736;23.346;2023-07-08T08:38:10;10.50;;;9.33;;
20623;SDS011;10471;42.736;23.346;2023-07-08T08:40:36;11.60;;;9.10;;
20623;SDS011;10471;42.736;23.346;2023-07-08T08:43:05;10.37;;;9.27;;
20623;SDS011;10471;42.736;23.346;2023-07-08T08:46:21;11.53;;;9.30;;
20623;SDS011;10471;42.736;23.346;2023-07-08T08:48:26;10.93;;;9.07;;
20623;SDS011;10471;42.736;23.346;2023-07-08T08:50:57;11.97;;;9.73;;
20623;SDS011;10471;42.736;23.346;2023-07-08T08:53:25;11.33;;;9.57;;
20623;SDS011;10471;42.736;23.346;2023-07-08T08:55:55;11.73;;;9.13;;
20623;SDS011;10471;42.736;23.346;2023-07-08T09:01:01;9.30;;;8.27;;
20623;SDS011;10471;42.736;23.346;2023-07-08T09:06:29;12.07;;;8.30;;
20623;SDS011;10471;42.736;23.346;2023-07-08T09:09:00;9.63;;;8.57;;
20623;SDS011;10471;42.736;23.346;2023-07-08T09:19:29;10.83;;;8.77;;
20623;SDS011;10471;42.736;23.346;2023-07-08T09:24:45;9.53;;;8.53;;
20623;SDS011;10471;42.736;23.346;2023-07-08T09:27:37;9.93;;;8.93;;
20623;SDS011;10471;42.736;23.346;2023-07-08T09:30:03;10.20;;;8.37;;
20623;SDS011;10471;42.736;23.346;2023-07-08T09:32:29;9.97;;;8.97;;
20623;SDS011;10471;42.736;23.346;2023-07-08T09:34:55;9.93;;;8.60;;
20623;SDS011;10471;42.736;23.346;2023-07-08T09:37:28;9.57;;;8.27;;
20623;SDS011;10471;42.736;23.346;2023-07-08T09:39:56;9.70;;;8.03;;
20623;SDS011;10471;42.736;23.346;2023-07-08T09:42:25;9.40;;;8.50;;
20623;SDS011;10471;42.736;23.346;2023-07-08T09:44:57;8.87;;;7.60;;
20623;SDS011;10471;42.736;23.346;2023-07-08T09:47:26;8.93;;;7.77;;
20623;SDS011;10471;42.736;23.346;2023-07-08T09:49:58;9.43;;;8.17;;
20623;SDS011;10471;42.736;23.346;2023-07-08T09:52:24;8.93;;;8.03;;
20623;SDS011;10471;42.736;23.346;2023-07-08T09:54:54;9.43;;;8.30;;
20623;SDS011;10471;42.736;23.346;2023-07-08T09:57:30;8.57;;;7.73;;
20623;SDS011;10471;42.736;23.346;2023-07-08T10:00:00;10.53;;;7.90;;
20623;SDS011;10471;42.736;23.346;2023-07-08T10:04:55;8.53;;;7.70;;
20623;SDS011;10471;42.736;23.346;2023-07-08T10:07:23;8.30;;;7.50;;
20623;SDS011;10471;42.736;23.346;2023-07-08T10:09:54;9.67;;;7.77;;
20623;SDS011;10471;42.736;23.346;2023-07-08T10:12:23;9.87;;;8.00;;
20623;SDS011;10471;42.736;23.346;2023-07-08T10:14:52;10.20;;;7.47;;
20623;SDS011;10471;42.736;23.346;2023-07-08T10:17:23;8.17;;;7.33;;
20623;SDS011;10471;42.736;23.346;2023-07-08T10:19:48;10.13;;;7.97;;
20623;SDS011;10471;42.736;23.346;2023-07-08T10:25:23;9.83;;;7.70;;
20623;SDS011;10471;42.736;23.346;2023-07-08T10:33:24;8.37;;;6.73;;
20623;SDS011;10471;42.736;23.346;2023-07-08T10:39:33;7.50;;;6.70;;
20623;SDS011;10471;42.736;23.346;2023-07-08T10:45:09;9.87;;;7.23;;
20623;SDS011;10471;42.736;23.346;2023-07-08T10:48:00;8.73;;;6.77;;
20623;SDS011;10471;42.736;23.346;2023-07-08T11:04:07;6.83;;;6.13;;
20623;SDS011;10471;42.736;23.346;2023-07-08T11:09:54;8.43;;;6.30;;
20623;SDS011;10471;42.736;23.346;2023-07-08T11:14:57;7.00;;;6.30;;
20623;SDS011;10471;42.736;23.346;2023-07-08T11:17:33;6.90;;;6.27;;
20623;SDS011;10471;42.736;23.346;2023-07-08T11:23:12;7.30;;;6.60;;
20623;SDS011;10471;42.736;23.346;2023-07-08T11:26:08;7.00;;;6.30;;
20623;SDS011;10471;42.736;23.346;2023-07-08T11:28:57;6.83;;;5.87;;
20623;SDS011;10471;42.736;23.346;2023-07-08T11:31:23;6.70;;;6.10;;
20623;SDS011;10471;42.736;23.346;2023-07-08T11:33:52;7.87;;;6.10;;
20623;SDS011;10471;42.736;23.346;2023-07-08T11:36:19;7.87;;;6.40;;
20623;SDS011;10471;42.736;23.346;2023-07-08T11:38:51;8.17;;;6.33;;
20623;SDS011;10471;42.736;23.346;2023-07-08T11:41:19;6.77;;;5.70;;
20623;SDS011;10471;42.736;23.346;2023-07-08T11:43:53;7.90;;;6.57;;
20623;SDS011;10471;42.736;23.346;2023-07-08T11:46:23;6.87;;;6.17;;
20623;SDS011;10471;42.736;23.346;2023-07-08T11:48:53;8.13;;;6.20;;
20623;SDS011;10471;42.736;23.346;2023-07-08T11:51:23;6.83;;;5.80;;
20623;SDS011;10471;42.736;23.346;2023-07-08T11:56:46;7.33;;;5.63;;
20623;SDS011;10471;42.736;23.346;2023-07-08T11:59:13;7.77;;;5.80;;
20623;SDS011;10471;42.736;23.346;2023-07-08T12:01:53;8.93;;;6.13;;
20623;SDS011;10471;42.736;23.346;2023-07-08T12:04:33;6.57;;;5.40;;
20623;SDS011;10471;42.736;23.346;2023-07-08T12:07:20;6.70;;;6.10;;
20623;SDS011;10471;42.736;23.346;2023-07-08T12:12:32;6.73;;;5.37;;
20623;SDS011;10471;42.736;23.346;2023-07-08T12:15:05;6.97;;;5.30;;
20623;SDS011;10471;42.736;23.346;2023-07-08T12:17:37;6.40;;;5.50;;
20623;SDS011;10471;42.736;23.346;2023-07-08T12:20:05;7.07;;;5.23;;
20623;SDS011;10471;42.736;23.346;2023-07-08T12:22:43;6.67;;;5.50;;
20623;SDS011;10471;42.736;23.346;2023-07-08T12:25:12;5.23;;;4.73;;
20623;SDS011;10471;42.736;23.346;2023-07-08T12:27:41;5.50;;;5.00;;
20623;SDS011;10471;42.736;23.346;2023-07-08T12:30:07;7.87;;;4.83;;
20623;SDS011;10471;42.736;23.346;2023-07-08T12:32:36;5.23;;;4.60;;
20623;SDS011;10471;42.736;23.346;2023-07-08T12:35:02;5.67;;;4.80;;
20623;SDS011;10471;42.736;23.346;2023-07-08T12:37:29;6.57;;;4.77;;
20623;SDS011;10471;42.736;23.346;2023-07-08T12:39:56;5.20;;;4.40;;
20623;SDS011;10471;42.736;23.346;2023-07-08T12:42:28;6.07;;;4.73;;
20623;SDS011;10471;42.736;23.346;2023-07-08T12:44:54;7.03;;;4.60;;
20623;SDS011;10471;42.736;23.346;2023-07-08T12:47:20;7.00;;;4.27;;
20623;SDS011;10471;42.736;23.346;2023-07-08T12:49:46;5.70;;;4.33;;
20623;SDS011;10471;42.736;23.346;2023-07-08T12:55:03;5.40;;;4.00;;
20623;SDS011;10471;42.736;23.346;2023-07-08T12:57:29;4.70;;;4.27;;
20623;SDS011;10471;42.736;23.346;2023-07-08T12:59:54;4.60;;;4.10;;
20623;SDS011;10471;42.736;23.346;2023-07-08T13:02:20;5.37;;;4.30;;
20623;SDS011;10471;42.736;23.346;2023-07-08T13:04:49;6.80;;;4.53;;
20623;SDS011;10471;42.736;23.346;2023-07-08T13:07:31;6.67;;;4.30;;
20623;SDS011;10471;42.736;23.346;2023-07-08T13:10:01;5.80;;;4.47;;
20623;SDS011;10471;42.736;23.346;2023-07-08T13:12:27;5.10;;;4.03;;
20623;SDS011;10471;42.736;23.346;2023-07-08T13:14:54;7.10;;;4.23;;
20623;SDS011;10471;42.736;23.346;2023-07-08T13:17:21;4.83;;;3.93;;
20623;SDS011;10471;42.736;23.346;2023-07-08T13:19:48;6.00;;;4.30;;
20623;SDS011;10471;42.736;23.346;2023-07-08T13:22:17;4.93;;;3.90;;
20623;SDS011;10471;42.736;23.346;2023-07-08T13:24:45;7.27;;;3.90;;
20623;SDS011;10471;42.736;23.346;2023-07-08T13:27:21;4.50;;;3.77;;
20623;SDS011;10471;42.736;23.346;2023-07-08T13:29:51;5.47;;;3.90;;
20623;SDS011;10471;42.736;23.346;2023-07-08T13:32:29;8.03;;;3.90;;
20623;SDS011;10471;42.736;23.346;2023-07-08T13:34:56;7.00;;;4.07;;
20623;SDS011;10471;42.736;23.346;2023-07-08T13:37:22;5.90;;;4.00;;
20623;SDS011;10471;42.736;23.346;2023-07-08T13:39:51;4.63;;;3.57;;
20623;SDS011;10471;42.736;23.346;2023-07-08T13:42:18;4.80;;;3.80;;
20623;SDS011;10471;42.736;23.346;2023-07-08T13:44:44;5.60;;;3.70;;
20623;SDS011;10471;42.736;23.346;2023-07-08T13:47:22;5.77;;;3.90;;
20623;SDS011;10471;42.736;23.346;2023-07-08T13:49:54;8.90;;;6.10;;
20623;SDS011;10471;42.736;23.346;2023-07-08T13:52:29;8.17;;;5.83;;
20623;SDS011;10471;42.736;23.346;2023-07-08T13:54:59;8.20;;;5.00;;
20623;SDS011;10471;42.736;23.346;2023-07-08T13:57:32;8.40;;;4.67;;
20623;SDS011;10471;42.736;23.346;2023-07-08T13:59:59;7.50;;;3.97;;
20623;SDS011;10471;42.736;23.346;2023-07-08T14:02:26;5.57;;;4.13;;
20623;SDS011;10471;42.736;23.346;2023-07-08T14:04:54;5.60;;;3.73;;
20623;SDS011;10471;42.736;23.346;2023-07-08T14:07:26;5.53;;;4.03;;
20623;SDS011;10471;42.736;23.346;2023-07-08T14:09:54;5.93;;;4.33;;
20623;SDS011;10471;42.736;23.346;2023-07-08T14:12:20;6.33;;;4.57;;
20623;SDS011;10471;42.736;23.346;2023-07-08T14:14:46;5.90;;;4.20;;
20623;SDS011;10471;42.736;23.346;2023-07-08T14:17:12;8.10;;;6.77;;
20623;SDS011;10471;42.736;23.346;2023-07-08T14:19:43;6.43;;;4.90;;
20623;SDS011;10471;42.736;23.346;2023-07-08T14:24:38;6.10;;;4.40;;
20623;SDS011;10471;42.736;23.346;2023-07-08T14:27:04;5.10;;;4.33;;
20623;SDS011;10471;42.736;23.346;2023-07-08T14:29:30;6.10;;;4.37;;
20623;SDS011;10471;42.736;23.346;2023-07-08T14:31:56;6.43;;;4.63;;
20623;SDS011;10471;42.736;23.346;2023-07-08T14:34:25;34.93;;;22.43;;
20623;SDS011;10471;42.736;23.346;2023-07-08T14:36:51;58.20;;;40.30;;
20623;SDS011;10471;42.736;23.346;2023-07-08T14:39:17;16.47;;;12.97;;
20623;SDS011;10471;42.736;23.346;2023-07-08T14:41:44;43.33;;;31.13;;
20623;SDS011;10471;42.736;23.346;2023-07-08T14:46:48;9.17;;;4.97;;
20623;SDS011;10471;42.736;23.346;2023-07-08T14:49:15;7.67;;;5.07;;
20623;SDS011;10471;42.736;23.346;2023-07-08T14:51:42;10.83;;;9.30;;
20623;SDS011;10471;42.736;23.346;2023-07-08T14:54:08;6.23;;;4.77;;
20623;SDS011;10471;42.736;23.346;2023-07-08T14:56:33;14.13;;;11.30;;
20623;SDS011;10471;42.736;23.346;2023-07-08T14:58:59;7.80;;;5.20;;
20623;SDS011;10471;42.736;23.346;2023-07-08T15:01:24;19.90;;;15.70;;
20623;SDS011;10471;42.736;23.346;2023-07-08T15:03:52;6.87;;;5.50;;
20623;SDS011;10471;42.736;23.346;2023-07-08T15:06:18;7.20;;;5.27;;
20623;SDS011;10471;42.736;23.346;2023-07-08T15:08:45;13.77;;;10.40;;
20623;SDS011;10471;42.736;23.346;2023-07-08T15:11:11;13.77;;;9.80;;
20623;SDS011;10471;42.736;23.346;2023-07-08T15:13:37;21.13;;;14.10;;
20623;SDS011;10471;42.736;23.346;2023-07-08T15:16:03;5.80;;;4.03;;
20623;SDS011;10471;42.736;23.346;2023-07-08T15:18:29;4.93;;;4.30;;
20623;SDS011;10471;42.736;23.346;2023-07-08T15:20:54;6.73;;;5.40;;
20623;SDS011;10471;42.736;23.346;2023-07-08T15:23:19;5.63;;;4.27;;
20623;SDS011;10471;42.736;23.346;2023-07-08T15:25:45;6.07;;;4.20;;
20623;SDS011;10471;42.736;23.346;2023-07-08T15:28:15;8.20;;;4.87;;
20623;SDS011;10471;42.736;23.346;2023-07-08T15:30:43;8.47;;;5.03;;
20623;SDS011;10471;42.736;23.346;2023-07-08T15:33:09;5.20;;;4.07;;
20623;SDS011;10471;42.736;23.346;2023-07-08T15:35:35;4.90;;;4.30;;
20623;SDS011;10471;42.736;23.346;2023-07-08T15:38:00;10.07;;;6.37;;
20623;SDS011;10471;42.736;23.346;2023-07-08T15:40:29;9.67;;;7.57;;